Time;durP1;ratioP1;P1;durP2;ratioP2;P2;SDS_P1;SDS_P2;PMS_P1;PMS_P2;Temp;Humidity;BMP_temperature;BMP_pressure;BME280_temperature;BME280_humidity;BME280_pressure;Samples;Min_cycle;Max_cycle;Signal;HPM_P1;HPM_P2
2022/06/15 00:00:51;;;;;;;;;7.00;7.00;;;;;14.22;56.34;100164.13;5095265;28;8959;-63
2022/06/15 00:03:21;;;;;;;;;10.00;10.00;;;;;14.19;56.04;100167.09;5077903;28;8862;-63
2022/06/15 00:05:48;;;;;;;;;6.50;6.50;;;;;14.16;56.52;100159.28;5095481;28;8943;-64
2022/06/15 00:08:16;;;;;;;;;8.25;7.50;;;;;14.12;56.20;100163.22;5095293;28;9526;-63
2022/06/15 00:10:44;;;;;;;;;7.00;6.25;;;;;14.08;56.26;100157.31;5094139;28;8902;-63
2022/06/15 00:13:12;;;;;;;;;11.00;10.50;;;;;14.03;56.39;100156.03;5094615;28;9525;-64
2022/06/15 00:15:40;;;;;;;;;9.75;9.25;;;;;13.99;56.69;100154.59;5095034;28;9188;-63
2022/06/15 00:18:08;;;;;;;;;10.50;9.75;;;;;13.92;56.72;100151.66;5095135;28;8826;-63
2022/06/15 00:20:37;;;;;;;;;8.50;8.50;;;;;13.86;57.04;100156.69;5094517;28;8810;-63
2022/06/15 00:23:05;;;;;;;;;9.50;9.50;;;;;13.78;56.90;100148.50;5095284;28;8821;-63
2022/06/15 00:25:32;;;;;;;;;7.00;7.00;;;;;13.70;56.89;100143.84;5094793;28;8861;-62
2022/06/15 00:28:01;;;;;;;;;5.00;3.50;;;;;13.64;57.71;100136.34;5094159;28;8964;-63
2022/06/15 00:30:28;;;;;;;;;10.00;9.50;;;;;13.60;57.36;100136.75;5094890;28;8856;-63
2022/06/15 00:32:56;;;;;;;;;10.75;9.50;;;;;13.56;57.18;100133.50;5094902;28;8841;-64
2022/06/15 00:35:24;;;;;;;;;12.75;11.00;;;;;13.53;57.60;100138.28;5094376;28;8980;-63
2022/06/15 00:37:52;;;;;;;;;10.00;8.25;;;;;13.49;57.74;100144.88;5094623;28;8830;-62
2022/06/15 00:40:20;;;;;;;;;10.00;9.75;;;;;13.48;57.52;100145.88;5095532;28;8837;-64
2022/06/15 00:42:48;;;;;;;;;9.00;9.00;;;;;13.49;57.68;100136.84;5094531;28;8984;-63
2022/06/15 00:45:15;;;;;;;;;7.50;7.00;;;;;13.49;57.40;100124.34;5096050;28;8857;-63
2022/06/15 00:47:43;;;;;;;;;5.75;5.75;;;;;13.49;57.70;100123.47;5098843;28;8926;-62
2022/06/15 00:50:12;;;;;;;;;6.00;6.00;;;;;13.48;57.39;100114.63;5099041;28;8830;-63
2022/06/15 00:52:39;;;;;;;;;8.00;8.00;;;;;13.37;58.16;100112.03;5099139;28;8960;-63
2022/06/15 00:55:07;;;;;;;;;9.75;8.50;;;;;13.24;57.64;100116.78;5099249;28;8838;-63
2022/06/15 00:57:36;;;;;;;;;6.00;5.50;;;;;13.10;58.17;100121.63;5099003;28;8934;-63
2022/06/15 01:00:04;;;;;;;;;8.50;7.50;;;;;12.98;58.32;100125.41;5098795;28;8980;-62
2022/06/15 01:02:31;;;;;;;;;9.25;8.50;;;;;12.88;58.46;100119.94;5099041;28;8911;-62
2022/06/15 01:04:59;;;;;;;;;9.50;9.50;;;;;12.80;59.00;100116.22;5098531;28;8826;-62
2022/06/15 01:07:27;;;;;;;;;7.00;6.00;;;;;12.73;58.83;100117.72;5099089;28;8863;-63
2022/06/15 01:09:55;;;;;;;;;14.00;12.75;;;;;12.69;58.73;100114.47;5099089;28;8972;-62
2022/06/15 01:12:23;;;;;;;;;9.00;9.00;;;;;12.68;59.30;100123.47;5098834;28;8854;-63
2022/06/15 01:14:51;;;;;;;;;13.75;13.25;;;;;12.66;59.42;100119.22;5099043;28;8826;-62
2022/06/15 01:17:19;;;;;;;;;9.50;9.00;;;;;12.63;58.79;100117.69;5098562;28;9627;-63
2022/06/15 01:19:47;;;;;;;;;8.25;7.25;;;;;12.60;59.12;100109.91;5099052;28;8826;-63
2022/06/15 01:22:14;;;;;;;;;10.00;9.50;;;;;12.58;59.48;100111.88;5098944;28;8821;-62
2022/06/15 01:24:42;;;;;;;;;10.75;9.50;;;;;12.55;59.78;100103.28;5098682;28;8826;-62
2022/06/15 01:27:10;;;;;;;;;11.50;11.50;;;;;12.53;58.94;100107.91;5098427;28;8853;-62
2022/06/15 01:29:39;;;;;;;;;12.75;11.25;;;;;12.51;59.57;100104.50;5098178;28;9511;-62
2022/06/15 01:32:06;;;;;;;;;9.00;9.00;;;;;12.48;59.08;100104.78;5098649;28;8846;-62
2022/06/15 01:34:34;;;;;;;;;11.50;11.00;;;;;12.46;59.25;100112.09;5098784;28;9531;-63
2022/06/15 01:37:02;;;;;;;;;13.00;12.00;;;;;12.42;59.45;100107.97;5097334;28;8931;-63
2022/06/15 01:39:30;;;;;;;;;11.50;10.50;;;;;12.38;59.79;100111.88;5098412;28;8852;-63
2022/06/15 01:41:58;;;;;;;;;9.25;7.50;;;;;12.35;59.74;100113.00;5098668;28;8858;-63
2022/06/15 01:44:26;;;;;;;;;6.50;4.00;;;;;12.35;59.58;100125.47;5098298;28;8826;-63
2022/06/15 01:46:53;;;;;;;;;8.50;8.50;;;;;12.34;59.33;100119.31;5099243;28;8929;-62
2022/06/15 01:49:22;;;;;;;;;10.75;8.50;;;;;12.35;59.54;100110.31;5098472;28;8830;-63
2022/06/15 01:51:49;;;;;;;;;12.25;9.00;;;;;12.35;59.44;100106.78;5098507;28;8834;-62
2022/06/15 01:54:17;;;;;;;;;9.00;8.00;;;;;12.32;59.40;100109.72;5098378;28;8830;-62
2022/06/15 01:56:45;;;;;;;;;9.75;8.50;;;;;12.30;59.61;100106.34;5097834;28;9677;-62
2022/06/15 01:59:13;;;;;;;;;9.00;9.00;;;;;12.28;59.58;100108.28;5098626;28;8842;-63
2022/06/15 02:01:41;;;;;;;;;10.25;8.50;;;;;12.26;59.85;100099.56;5097772;28;9639;-62
2022/06/15 02:04:09;;;;;;;;;9.75;9.75;;;;;12.22;59.88;100106.97;5098515;28;9499;-63
2022/06/15 02:06:37;;;;;;;;;6.50;6.50;;;;;12.18;60.13;100107.38;5097810;28;8834;-62
2022/06/15 02:09:05;;;;;;;;;6.50;4.00;;;;;12.13;59.79;100104.22;5098526;28;8836;-63
2022/06/15 02:11:33;;;;;;;;;9.00;9.00;;;;;12.09;60.25;100118.81;5098166;28;8884;-63
2022/06/15 02:14:00;;;;;;;;;10.25;10.25;;;;;12.08;60.21;100117.13;5097977;28;8834;-63
2022/06/15 02:16:28;;;;;;;;;9.75;9.50;;;;;12.08;60.07;100117.13;5098547;28;8988;-62
2022/06/15 02:18:56;;;;;;;;;10.50;9.50;;;;;12.07;59.49;100102.91;5098081;28;8919;-65
2022/06/15 02:21:24;;;;;;;;;4.00;4.00;;;;;12.05;60.02;100101.34;5097574;28;8853;-62
2022/06/15 02:23:52;;;;;;;;;11.00;9.50;;;;;12.00;59.97;100096.38;5097401;28;8826;-63
2022/06/15 02:26:20;;;;;;;;;10.00;10.00;;;;;11.96;60.14;100107.44;5097546;28;8854;-62
2022/06/15 02:28:48;;;;;;;;;10.00;9.25;;;;;11.90;60.39;100097.28;5096161;28;9279;-62
2022/06/15 02:31:15;;;;;;;;;10.00;9.00;;;;;11.88;60.25;100093.03;5097479;28;8818;-61
2022/06/15 02:33:43;;;;;;;;;11.75;11.75;;;;;11.85;60.53;100094.16;5097250;28;8849;-62
2022/06/15 02:36:12;;;;;;;;;9.75;7.50;;;;;11.82;60.29;100093.56;5097038;28;8817;-62
2022/06/15 02:38:39;;;;;;;;;10.50;9.75;;;;;11.76;60.29;100092.22;5097573;28;8838;-62
2022/06/15 02:41:07;;;;;;;;;7.75;7.75;;;;;11.71;60.51;100086.44;5097378;28;8860;-61
2022/06/15 02:43:35;;;;;;;;;9.00;7.00;;;;;11.64;60.78;100084.38;5095814;28;8972;-62
2022/06/15 02:46:03;;;;;;;;;13.75;12.00;;;;;11.56;60.99;100084.97;5096646;28;8826;-62
2022/06/15 02:48:33;;;;;;;;;9.25;9.25;;;;;11.50;60.86;100088.13;5096973;28;8971;-62
2022/06/15 02:51:01;;;;;;;;;10.00;9.00;;;;;11.41;61.39;100080.91;5097173;28;8906;-62
2022/06/15 02:53:29;;;;;;;;;9.00;7.50;;;;;11.36;61.55;100077.75;5096701;28;8968;-62
2022/06/15 02:55:57;;;;;;;;;5.50;5.50;;;;;11.33;61.39;100086.00;5097059;28;8814;-62
2022/06/15 02:58:25;;;;;;;;;9.75;9.75;;;;;11.30;61.80;100083.56;5096023;28;8848;-64
2022/06/15 03:00:52;;;;;;;;;9.00;9.00;;;;;11.27;61.60;100089.16;5096220;28;9645;-62
2022/06/15 03:03:22;;;;;;;;;10.00;9.00;;;;;11.25;61.40;100087.56;5094268;28;8864;-62
2022/06/15 03:05:50;;;;;;;;;12.00;10.50;;;;;11.22;61.23;100090.50;5093855;28;8842;-63
2022/06/15 03:08:18;;;;;;;;;6.75;6.75;;;;;11.19;61.74;100080.06;5093480;28;9666;-63
2022/06/15 03:10:46;;;;;;;;;10.00;9.00;;;;;11.18;61.88;100089.88;5094107;28;8836;-62
2022/06/15 03:13:14;;;;;;;;;9.50;8.00;;;;;11.17;61.66;100082.88;5094646;28;8850;-63
2022/06/15 03:15:42;;;;;;;;;9.75;9.50;;;;;11.18;61.43;100089.88;5095235;28;8833;-62
2022/06/15 03:18:10;;;;;;;;;6.75;6.75;;;;;11.19;61.43;100083.59;5094692;28;8841;-62
2022/06/15 03:20:37;;;;;;;;;8.50;7.50;;;;;11.22;61.77;100086.00;5095243;28;8842;-62
2022/06/15 03:23:06;;;;;;;;;9.25;7.50;;;;;11.30;61.66;100093.41;5095264;28;8952;-63
2022/06/15 03:25:34;;;;;;;;;6.00;5.50;;;;;11.35;61.77;100086.72;5094767;28;8871;-63
2022/06/15 03:28:02;;;;;;;;;9.75;7.00;;;;;11.36;61.47;100091.06;5094512;28;8843;-63
2022/06/15 03:30:30;;;;;;;;;6.25;6.25;;;;;11.36;61.30;100091.06;5094891;28;8842;-63
2022/06/15 03:32:58;;;;;;;;;8.50;8.00;;;;;11.36;61.44;100088.41;5095885;28;8833;-64
2022/06/15 03:35:35;;;;;;;;;8.00;7.50;;;;;11.38;61.33;100091.78;5095302;28;9652;-63
2022/06/15 03:38:03;;;;;;;;;7.50;6.25;;;;;11.39;61.00;100096.16;5095974;28;8845;-62
2022/06/15 03:40:30;;;;;;;;;10.00;9.00;;;;;11.43;60.74;100091.41;5095872;28;8948;-62
2022/06/15 03:42:58;;;;;;;;;8.00;7.00;;;;;11.44;60.57;100099.28;5096060;28;8858;-62
2022/06/15 03:45:26;;;;;;;;;8.00;8.00;;;;;11.47;60.65;100096.41;5095728;28;8930;-64
2022/06/15 03:47:55;;;;;;;;;11.00;8.50;;;;;11.49;60.74;100094.44;5094698;28;8838;-63
2022/06/15 03:50:24;;;;;;;;;7.50;7.00;;;;;11.53;61.19;100097.72;5095677;28;8822;-61
2022/06/15 03:52:51;;;;;;;;;9.50;8.00;;;;;11.57;60.63;100093.81;5095733;28;8830;-61
2022/06/15 03:55:25;;;;;;;;;10.00;9.00;;;;;11.61;60.78;100095.31;5096410;28;8911;-62
2022/06/15 03:57:53;;;;;;;;;10.00;10.00;;;;;11.65;60.76;100099.41;5095775;28;8834;-62
2022/06/15 04:00:21;;;;;;;;;9.00;7.00;;;;;11.67;60.99;100094.81;5095965;28;8842;-63
2022/06/15 04:02:48;;;;;;;;;11.50;10.00;;;;;11.67;60.79;100086.81;5095775;28;8818;-63
2022/06/15 04:05:16;;;;;;;;;12.00;10.00;;;;;11.64;60.87;100090.56;5095724;28;8960;-63
2022/06/15 04:10:30;;;;;;;;;10.50;9.25;;;;;11.64;60.77;100095.91;5095512;28;8972;-62
2022/06/15 04:12:57;;;;;;;;;11.00;9.50;;;;;11.65;60.77;100097.59;5095977;28;8858;-62
2022/06/15 04:15:25;;;;;;;;;9.00;7.00;;;;;11.68;60.90;100097.34;5095427;28;8952;-62
2022/06/15 04:17:53;;;;;;;;;8.00;7.00;;;;;11.69;61.11;100093.69;5095492;28;8883;-62
2022/06/15 04:20:36;;;;;;;;;9.75;9.25;;;;;11.72;60.78;100095.25;5093900;28;8845;-63
2022/06/15 04:23:04;;;;;;;;;9.25;7.50;;;;;11.77;60.82;100096.63;5095552;28;8914;-63
2022/06/15 04:25:32;;;;;;;;;8.00;7.67;;;;;11.83;60.92;100090.75;5095342;28;8834;-63
2022/06/15 04:28:00;;;;;;;;;11.00;8.50;;;;;11.92;60.37;100097.16;5095476;28;8966;-63
2022/06/15 04:30:28;;;;;;;;;7.00;6.50;;;;;11.98;60.09;100086.81;5095158;28;8822;-62
2022/06/15 04:32:56;;;;;;;;;6.25;6.25;;;;;12.04;60.28;100091.66;5095299;28;8964;-62
2022/06/15 04:35:23;;;;;;;;;13.75;12.50;;;;;12.09;59.96;100092.94;5095104;28;8856;-63
2022/06/15 04:37:52;;;;;;;;;10.00;10.00;;;;;12.15;59.98;100091.63;5095186;28;8834;-63
2022/06/15 04:40:19;;;;;;;;;14.50;13.00;;;;;12.21;60.20;100093.75;5094424;28;8834;-62
2022/06/15 04:42:47;;;;;;;;;8.00;6.75;;;;;12.26;59.79;100099.56;5093721;28;8968;-62
2022/06/15 04:45:15;;;;;;;;;15.00;12.50;;;;;12.32;60.14;100091.88;5093403;28;8996;-62
2022/06/15 04:47:43;;;;;;;;;13.75;11.50;;;;;12.39;60.09;100092.22;5094065;28;8868;-62
2022/06/15 04:50:11;;;;;;;;;12.75;10.50;;;;;12.48;59.77;100094.09;5093421;28;8872;-62
2022/06/15 04:52:39;;;;;;;;;11.00;10.50;;;;;12.58;59.25;100093.19;5092187;28;8945;-64
2022/06/15 04:55:07;;;;;;;;;9.50;7.00;;;;;12.69;59.77;100098.44;5092543;28;8952;-64
2022/06/15 04:57:34;;;;;;;;;10.00;10.00;;;;;12.81;58.91;100089.38;5092533;28;8864;-63
2022/06/15 05:00:02;;;;;;;;;14.50;11.25;;;;;12.93;59.05;100095.50;5092819;28;8830;-63
2022/06/15 05:02:30;;;;;;;;;9.75;9.25;;;;;13.05;58.59;100092.63;5093335;28;8821;-63
2022/06/15 05:04:59;;;;;;;;;10.00;9.00;;;;;13.20;58.83;100095.81;5092426;28;8838;-63
2022/06/15 05:07:27;;;;;;;;;15.00;12.50;;;;;13.34;58.28;100092.72;5092631;28;8869;-63
2022/06/15 05:09:56;;;;;;;;;15.75;15.00;;;;;13.47;58.14;100101.38;5093651;28;8833;-62
2022/06/15 05:12:24;;;;;;;;;14.50;13.75;;;;;13.62;57.84;100100.00;5093114;28;8880;-63
2022/06/15 05:14:52;;;;;;;;;12.00;10.50;;;;;13.76;57.30;100096.94;5095061;28;8879;-63
2022/06/15 05:17:20;;;;;;;;;11.75;11.00;;;;;13.90;57.20;100093.88;5094598;28;8868;-63
2022/06/15 05:19:48;;;;;;;;;14.50;13.75;;;;;14.08;57.33;100093.03;5092920;28;8845;-63
2022/06/15 05:22:15;;;;;;;;;15.75;14.50;;;;;14.25;56.56;100088.81;5092687;28;8925;-64
2022/06/15 05:24:43;;;;;;;;;21.00;16.75;;;;;14.39;56.67;100096.44;5093010;28;8922;-63
2022/06/15 05:27:11;;;;;;;;;18.25;15.00;;;;;14.55;56.64;100094.88;5092688;28;8977;-62
2022/06/15 05:29:40;;;;;;;;;13.50;12.75;;;;;14.69;56.67;100093.56;5093192;28;8861;-63
2022/06/15 05:32:08;;;;;;;;;12.50;11.00;;;;;14.84;56.58;100087.63;5093913;28;8837;-62
2022/06/15 05:34:36;;;;;;;;;18.00;15.50;;;;;14.97;56.06;100089.97;5096685;28;8860;-63
2022/06/15 05:37:04;;;;;;;;;17.00;16.00;;;;;15.13;55.55;100087.50;5097363;28;8956;-62
2022/06/15 05:39:32;;;;;;;;;12.00;12.00;;;;;15.29;55.43;100088.59;5097045;28;8855;-63
2022/06/15 05:42:00;;;;;;;;;19.00;19.00;;;;;15.46;55.67;100089.66;5095901;28;8857;-63
2022/06/15 05:44:31;;;;;;;;;13.75;13.00;;;;;15.60;55.47;100084.63;5095682;28;8833;-62
2022/06/15 05:47:00;;;;;;;;;17.25;16.25;;;;;15.76;55.23;100086.66;5095779;28;8841;-63
2022/06/15 05:49:28;;;;;;;;;8.50;7.00;;;;;15.89;54.63;100090.66;5093788;28;8852;-63
2022/06/15 05:51:55;;;;;;;;;14.50;13.00;;;;;15.97;55.06;100085.38;5093304;28;8833;-63
2022/06/15 05:54:23;;;;;;;;;16.75;14.00;;;;;16.09;54.78;100083.31;5091845;28;9661;-62
2022/06/15 05:56:51;;;;;;;;;17.00;15.00;;;;;16.16;54.66;100079.84;5092352;28;8868;-62
2022/06/15 05:59:19;;;;;;;;;16.00;15.50;;;;;16.25;54.52;100085.13;5093045;28;8856;-63
2022/06/15 06:01:47;;;;;;;;;19.75;16.00;;;;;16.33;54.40;100084.38;5093255;28;8856;-61
2022/06/15 06:04:16;;;;;;;;;10.50;9.00;;;;;16.43;54.41;100086.03;5093431;28;8837;-63
2022/06/15 06:06:44;;;;;;;;;18.50;17.00;;;;;16.52;54.24;100079.69;5094031;28;8925;-63
2022/06/15 06:09:11;;;;;;;;;15.50;14.00;;;;;16.61;54.56;100080.59;5094843;28;8997;-64
2022/06/15 06:11:39;;;;;;;;;18.50;17.50;;;;;16.70;54.56;100079.66;5094255;28;8857;-64
2022/06/15 06:14:08;;;;;;;;;17.25;16.75;;;;;16.79;54.39;100084.94;5093983;28;8987;-63
2022/06/15 06:16:35;;;;;;;;;21.50;15.50;;;;;16.89;53.92;100084.81;5093532;28;8839;-63
2022/06/15 06:19:03;;;;;;;;;12.00;12.00;;;;;16.97;53.47;100093.81;5092844;28;9482;-63
2022/06/15 06:21:31;;;;;;;;;17.50;16.75;;;;;17.08;53.64;100090.84;5091604;28;8883;-62
2022/06/15 06:23:59;;;;;;;;;12.50;11.50;;;;;17.21;53.60;100093.09;5092716;28;8849;-63
2022/06/15 06:26:28;;;;;;;;;14.00;14.00;;;;;17.36;53.65;100086.09;5093512;28;8832;-64
2022/06/15 06:28:56;;;;;;;;;17.50;14.75;;;;;17.49;53.19;100087.38;5092442;28;8963;-63
2022/06/15 06:31:24;;;;;;;;;20.50;17.50;;;;;17.63;52.67;100091.28;5093805;28;8841;-63
2022/06/15 06:33:52;;;;;;;;;19.75;18.00;;;;;17.75;52.72;100090.84;5093303;28;8921;-63
2022/06/15 06:36:20;;;;;;;;;12.00;12.00;;;;;17.89;52.41;100094.72;5095746;28;8918;-63
2022/06/15 06:38:48;;;;;;;;;16.00;14.00;;;;;17.99;52.47;100093.56;5095094;28;8847;-62
2022/06/15 06:41:16;;;;;;;;;13.00;12.00;;;;;18.10;52.46;100090.59;5093071;28;8865;-63
2022/06/15 06:43:43;;;;;;;;;16.00;15.00;;;;;18.24;52.02;100086.38;5091559;28;8857;-62
2022/06/15 06:46:12;;;;;;;;;16.75;15.00;;;;;18.33;52.20;100086.25;5093540;28;9530;-63
2022/06/15 06:48:39;;;;;;;;;17.50;15.50;;;;;18.40;52.24;100081.88;5093318;28;8847;-63
2022/06/15 06:51:07;;;;;;;;;14.50;14.50;;;;;18.42;52.33;100081.69;5095291;28;8857;-63
2022/06/15 06:53:36;;;;;;;;;15.50;15.25;;;;;18.52;52.49;100093.19;5093881;28;8849;-63
2022/06/15 06:56:04;;;;;;;;;16.00;15.25;;;;;18.58;51.86;100093.34;5094914;28;8929;-63
2022/06/15 06:58:31;;;;;;;;;17.50;15.25;;;;;18.66;51.77;100090.63;5094603;28;8841;-63
2022/06/15 07:00:59;;;;;;;;;13.00;13.00;;;;;18.75;51.76;100084.22;5093122;28;8878;-63
2022/06/15 07:03:28;;;;;;;;;15.60;13.00;;;;;18.90;51.29;100098.69;5093213;28;8971;-63
2022/06/15 07:05:56;;;;;;;;;16.00;16.00;;;;;19.02;51.38;100097.34;5093878;28;8861;-63
2022/06/15 07:08:24;;;;;;;;;13.40;13.00;;;;;19.17;51.01;100092.91;5091762;28;8841;-63
2022/06/15 07:10:52;;;;;;;;;14.80;13.60;;;;;19.29;50.98;100102.38;5091300;28;9507;-63
2022/06/15 07:13:20;;;;;;;;;13.20;12.20;;;;;19.42;50.97;100091.03;5091279;28;8913;-63
2022/06/15 07:15:47;;;;;;;;;12.60;11.20;;;;;19.52;50.84;100097.06;5091430;28;8930;-63
2022/06/15 07:18:15;;;;;;;;;13.20;13.20;;;;;19.64;50.47;100098.38;5090542;28;8837;-63
2022/06/15 07:20:43;;;;;;;;;9.60;9.20;;;;;19.73;50.47;100100.00;5092239;28;8861;-63
2022/06/15 07:23:11;;;;;;;;;16.80;15.60;;;;;19.81;50.61;100092.69;5091732;28;8841;-63
2022/06/15 07:25:39;;;;;;;;;14.00;13.00;;;;;19.86;50.80;100094.88;5090795;28;9168;-63
2022/06/15 07:28:07;;;;;;;;;14.80;13.40;;;;;19.92;50.35;100096.84;5089065;28;8875;-63
2022/06/15 07:30:35;;;;;;;;;10.20;9.80;;;;;19.98;50.62;100091.59;5089282;28;8866;-63
2022/06/15 07:33:03;;;;;;;;;17.80;15.60;;;;;20.08;50.14;100094.06;5087614;28;8983;-63
2022/06/15 07:35:31;;;;;;;;;13.20;11.00;;;;;20.17;50.45;100085.75;5087499;28;8918;-63
2022/06/15 07:37:59;;;;;;;;;12.20;11.20;;;;;20.27;50.24;100090.91;5087351;28;8852;-63
2022/06/15 07:40:46;;;;;;;;;11.80;11.00;;;;;20.40;50.49;100078.47;5088553;28;9507;-64
2022/06/15 07:43:14;;;;;;;;;10.40;10.00;;;;;20.49;50.02;100077.38;5091161;28;8837;-63
2022/06/15 07:45:42;;;;;;;;;11.00;11.00;;;;;20.60;49.68;100082.38;5092474;28;9285;-63
2022/06/15 07:50:55;;;;;;;;;11.20;11.20;;;;;20.86;49.55;100085.50;5093600;28;8868;-63
2022/06/15 07:53:23;;;;;;;;;14.40;11.60;;;;;21.00;49.15;100082.00;5092536;28;8873;-63
2022/06/15 07:55:52;;;;;;;;;11.40;11.00;;;;;21.12;49.24;100089.50;5091754;28;8849;-63
2022/06/15 07:58:20;;;;;;;;;12.00;11.00;;;;;21.16;49.15;100093.53;5091116;28;8836;-63
2022/06/15 08:00:47;;;;;;;;;12.00;12.00;;;;;21.25;49.10;100094.28;5090343;28;8853;-63
2022/06/15 08:03:15;;;;;;;;;12.00;11.80;;;;;21.33;48.82;100094.19;5091451;28;8848;-63
2022/06/15 08:05:43;;;;;;;;;11.00;10.20;;;;;21.43;48.59;100100.16;5092451;28;8849;-63
2022/06/15 08:08:11;;;;;;;;;11.20;9.60;;;;;21.53;48.90;100092.56;5091875;28;8840;-63
2022/06/15 08:10:39;;;;;;;;;11.00;11.00;;;;;21.66;48.77;100092.78;5090059;28;8991;-63
2022/06/15 08:13:07;;;;;;;;;10.20;9.40;;;;;21.77;48.47;100090.44;5091236;28;8998;-63
2022/06/15 08:15:34;;;;;;;;;12.00;11.80;;;;;21.85;47.98;100089.50;5090607;28;8875;-64
2022/06/15 08:18:03;;;;;;;;;11.00;11.00;;;;;21.91;48.47;100091.44;5090676;28;8833;-63
2022/06/15 08:20:31;;;;;;;;;12.20;11.80;;;;;21.99;48.36;100083.19;5091280;28;8983;-63
2022/06/15 08:22:59;;;;;;;;;14.20;12.00;;;;;22.08;48.27;100090.19;5090404;28;8969;-63
2022/06/15 08:25:29;;;;;;;;;11.40;11.20;;;;;22.19;47.72;100084.25;5092696;28;9002;-63
2022/06/15 08:27:57;;;;;;;;;10.80;9.00;;;;;22.28;47.76;100093.94;5091809;28;8864;-63
2022/06/15 08:30:24;;;;;;;;;9.00;9.00;;;;;22.38;47.66;100092.59;5091845;28;8849;-63
2022/06/15 08:32:52;;;;;;;;;9.80;9.80;;;;;22.49;47.59;100088.56;5091705;28;8971;-63
2022/06/15 08:35:20;;;;;;;;;13.00;12.60;;;;;22.58;47.67;100088.25;5089902;28;8876;-63
2022/06/15 08:37:48;;;;;;;;;9.20;9.20;;;;;22.69;47.39;100084.97;5090453;28;8848;-63
2022/06/15 08:40:16;;;;;;;;;9.80;9.80;;;;;22.81;47.70;100083.41;5092877;28;8829;-63
2022/06/15 08:42:44;;;;;;;;;12.00;10.00;;;;;22.95;47.12;100084.34;5090468;28;8881;-63
2022/06/15 08:45:13;;;;;;;;;8.80;8.00;;;;;23.08;46.54;100084.47;5089967;28;8979;-63
2022/06/15 08:47:41;;;;;;;;;11.80;11.20;;;;;23.13;47.13;100080.09;5090164;28;8829;-63
2022/06/15 08:50:08;;;;;;;;;11.80;10.00;;;;;23.17;46.69;100083.28;5089636;28;8975;-64
2022/06/15 08:52:36;;;;;;;;;11.40;9.80;;;;;23.28;46.69;100080.88;5089249;28;8945;-64
2022/06/15 08:55:04;;;;;;;;;7.80;7.40;;;;;23.42;46.91;100077.19;5090043;28;8891;-63
2022/06/15 08:57:34;;;;;;;;;9.40;9.20;;;;;23.55;46.79;100076.41;5089797;28;9025;-64
2022/06/15 09:00:02;;;;;;;;;12.20;10.80;;;;;23.69;46.27;100070.00;5089785;28;8844;-64
2022/06/15 09:02:31;;;;;;;;;10.40;10.20;;;;;23.81;46.31;100071.09;5090007;28;9752;-63
2022/06/15 09:04:58;;;;;;;;;9.40;9.40;;;;;23.95;45.73;100075.56;5089239;28;8864;-64
2022/06/15 09:07:26;;;;;;;;;10.80;10.00;;;;;24.09;45.46;100080.84;5093091;28;9534;-64
2022/06/15 09:09:54;;;;;;;;;9.80;9.80;;;;;24.16;45.83;100080.88;5075044;28;9515;-63
2022/06/15 09:15:07;;;;;;;;;8.20;7.40;;;;;24.35;45.60;100082.81;5095652;28;8832;-64
2022/06/15 09:17:36;;;;;;;;;9.80;9.80;;;;;24.44;45.35;100084.28;5095438;28;8983;-64
2022/06/15 09:20:03;;;;;;;;;10.00;10.00;;;;;24.54;45.34;100076.53;5096334;28;8849;-64
2022/06/15 09:22:31;;;;;;;;;9.20;8.80;;;;;24.67;45.20;100087.47;5096451;28;8852;-64
2022/06/15 09:24:59;;;;;;;;;9.20;9.20;;;;;24.77;44.87;100088.75;5093767;28;8844;-64
2022/06/15 09:27:27;;;;;;;;;9.40;7.00;;;;;24.90;44.93;100082.47;5095730;28;8845;-64
2022/06/15 09:29:55;;;;;;;;;8.40;7.00;;;;;25.00;45.12;100089.16;5096423;28;8844;-64
2022/06/15 09:32:23;;;;;;;;;10.20;8.20;;;;;25.10;44.48;100091.47;5094940;28;8865;-64
2022/06/15 09:34:51;;;;;;;;;5.80;5.00;;;;;25.16;44.53;100090.59;5095929;28;8859;-64
2022/06/15 09:37:19;;;;;;;;;6.00;6.00;;;;;25.24;44.13;100088.53;5093730;28;8844;-64
2022/06/15 09:39:46;;;;;;;;;6.00;6.00;;;;;25.37;44.17;100090.38;5092481;28;9215;-64
2022/06/15 09:42:14;;;;;;;;;6.20;6.20;;;;;25.55;43.45;100087.84;5093149;28;8962;-64
2022/06/15 09:44:42;;;;;;;;;7.00;7.00;;;;;25.66;44.08;100086.09;5093897;28;8853;-64
2022/06/15 09:47:11;;;;;;;;;8.00;8.00;;;;;25.76;43.68;100089.25;5092354;28;8837;-64
2022/06/15 09:49:39;;;;;;;;;7.40;7.00;;;;;25.90;42.99;100082.69;5092300;28;8995;-64
2022/06/15 09:52:07;;;;;;;;;8.00;7.00;;;;;26.02;42.76;100080.97;5092353;28;8833;-64
2022/06/15 09:54:36;;;;;;;;;6.60;6.00;;;;;26.10;42.95;100085.34;5092747;28;8857;-64
2022/06/15 09:57:04;;;;;;;;;7.00;7.00;;;;;26.22;42.57;100083.56;5094938;28;8836;-64
2022/06/15 09:59:33;;;;;;;;;8.20;8.20;;;;;26.40;42.67;100073.59;5094692;28;8948;-64
2022/06/15 10:02:02;;;;;;;;;7.60;7.00;;;;;26.68;41.80;100079.53;5095347;28;8860;-64
2022/06/15 10:04:31;;;;;;;;;6.80;6.80;;;;;27.01;41.78;100065.59;5093357;28;9207;-64
2022/06/15 10:07:12;;;;;;;;;8.00;7.00;;;;;27.32;40.79;100066.31;5092305;28;8845;-64
2022/06/15 10:09:40;;;;;;;;;7.00;7.00;;;;;27.60;40.59;100063.06;5093627;28;8899;-64
2022/06/15 10:14:49;;;;;;;;;8.60;8.60;;;;;28.16;39.86;100058.16;5090569;28;8856;-64
2022/06/15 10:17:17;;;;;;;;;7.00;7.00;;;;;28.42;39.24;100064.13;5092124;28;8975;-64
2022/06/15 10:19:45;;;;;;;;;7.20;6.00;;;;;28.69;39.35;100059.91;5090535;28;8860;-64
2022/06/15 10:22:13;;;;;;;;;7.60;7.20;;;;;29.01;38.83;100052.22;5092920;28;8849;-65
2022/06/15 10:24:43;;;;;;;;;5.00;5.00;;;;;29.38;38.19;100064.63;5091092;28;8967;-64
2022/06/15 10:27:10;;;;;;;;;7.60;6.20;;;;;29.69;37.68;100061.50;5091382;28;8938;-64
2022/06/15 10:29:38;;;;;;;;;6.40;6.20;;;;;30.00;37.83;100063.78;5090342;28;8849;-64
2022/06/15 10:32:07;;;;;;;;;6.20;6.00;;;;;30.36;37.48;100068.94;5091914;28;8840;-64
2022/06/15 10:34:36;;;;;;;;;8.00;6.00;;;;;30.67;37.00;100060.19;5092215;28;9546;-64
2022/06/15 10:37:03;;;;;;;;;8.00;7.40;;;;;30.90;36.53;100060.88;5091401;28;8833;-64
2022/06/15 10:39:31;;;;;;;;;5.20;5.20;;;;;31.19;35.89;100049.50;5093240;28;8995;-64
2022/06/15 10:41:59;;;;;;;;;6.00;6.00;;;;;31.52;36.31;100045.88;5091312;28;8885;-64
2022/06/15 10:44:28;;;;;;;;;8.40;8.00;;;;;31.83;36.09;100046.03;5092337;28;8836;-64
2022/06/15 10:46:56;;;;;;;;;8.00;7.00;;;;;32.21;35.84;100053.34;5093472;28;8939;-64
2022/06/15 10:49:24;;;;;;;;;7.60;7.00;;;;;32.54;35.23;100048.50;5092334;28;8921;-65
2022/06/15 10:51:52;;;;;;;;;7.00;7.00;;;;;32.70;35.31;100046.72;5092557;28;8853;-64
2022/06/15 10:54:20;;;;;;;;;6.00;6.00;;;;;32.77;35.28;100050.94;5092677;28;8983;-64
2022/06/15 11:02:17;;;;;;;;;9.40;8.40;;;;;33.39;34.28;100038.16;5059123;28;8853;-64
2022/06/15 11:04:46;;;;;;;;;8.00;7.80;;;;;33.59;33.70;100034.72;5090644;28;8995;-64
2022/06/15 11:07:14;;;;;;;;;6.20;6.00;;;;;33.80;33.34;100025.41;5091685;28;8872;-65
2022/06/15 11:09:41;;;;;;;;;8.80;8.60;;;;;33.93;33.01;100033.22;5091924;28;8849;-65
2022/06/15 11:12:09;;;;;;;;;8.20;6.60;;;;;34.04;33.28;100032.16;5091011;28;8861;-64
2022/06/15 11:14:38;;;;;;;;;6.60;6.60;;;;;34.22;33.49;100034.41;5089776;28;8845;-64
2022/06/15 11:19:51;;;;;;;;;7.40;7.00;;;;;34.54;33.46;100029.50;5089491;28;8949;-64
2022/06/15 11:22:18;;;;;;;;;7.00;6.20;;;;;34.63;33.16;100027.84;5089473;28;9583;-64
2022/06/15 11:24:46;;;;;;;;;7.20;6.40;;;;;34.72;32.36;100028.97;5088694;28;9537;-64
2022/06/15 11:27:16;;;;;;;;;8.00;8.00;;;;;34.78;32.67;100025.09;5088235;28;8853;-64
2022/06/15 11:29:43;;;;;;;;;8.00;7.60;;;;;34.95;32.40;100020.13;5088040;28;8852;-64
2022/06/15 11:32:11;;;;;;;;;6.80;6.80;;;;;35.14;31.76;100016.50;5088457;28;8845;-64
2022/06/15 11:34:40;;;;;;;;;7.00;6.20;;;;;35.27;31.51;100020.66;5085748;28;8849;-65
2022/06/15 11:37:08;;;;;;;;;5.80;5.80;;;;;35.46;31.89;100014.22;5088540;28;8967;-65
2022/06/15 11:39:38;;;;;;;;;5.40;5.20;;;;;35.60;31.17;100018.06;5089797;28;8999;-65
2022/06/15 11:42:05;;;;;;;;;6.00;6.00;;;;;35.68;31.60;100011.97;5088947;28;8897;-65
2022/06/15 11:44:34;;;;;;;;;5.60;5.60;;;;;35.80;31.42;100006.94;5088429;28;8841;-65
2022/06/15 11:47:02;;;;;;;;;8.00;7.00;;;;;35.92;31.36;100012.97;5092399;28;8833;-65
2022/06/15 11:49:30;;;;;;;;;6.80;6.80;;;;;36.12;30.94;100007.31;5092982;28;9333;-65